createdAt,value
2022-10-23T00:01:29.205Z,9.10
2022-10-23T00:03:58.949Z,9.27
2022-10-23T00:06:28.891Z,9.60
2022-10-23T00:08:55.911Z,7.95
2022-10-23T00:11:26.764Z,8.82
2022-10-23T00:14:00.587Z,7.35
2022-10-23T00:16:29.061Z,8.93
2022-10-23T00:18:56.138Z,9.52
2022-10-23T00:21:23.154Z,8.55
2022-10-23T00:23:51.274Z,7.90
2022-10-23T00:26:18.294Z,8.93
2022-10-23T00:28:47.976Z,6.68
2022-10-23T00:31:16.699Z,7.40
2022-10-23T00:33:44.005Z,9.70
2022-10-23T00:36:13.876Z,8.68
2022-10-23T00:38:40.593Z,7.32
2022-10-23T00:41:09.438Z,8.77
2022-10-23T00:43:56.354Z,8.85
2022-10-23T00:46:23.056Z,9.57
2022-10-23T00:48:49.836Z,10.10
2022-10-23T00:51:17.210Z,9.93
2022-10-23T00:53:48.010Z,9.73
2022-10-23T00:56:17.248Z,9.15
2022-10-23T00:58:46.341Z,9.82
2022-10-23T01:01:19.102Z,8.27
2022-10-23T01:03:47.319Z,10.10
2022-10-23T01:06:27.233Z,10.23
2022-10-23T01:08:56.138Z,10.68
2022-10-23T01:11:29.770Z,9.63
2022-10-23T01:14:18.228Z,10.75
2022-10-23T01:16:51.280Z,10.68
2022-10-23T01:19:27.040Z,10.45
2022-10-23T01:22:31.452Z,10.95
2022-10-23T01:25:01.563Z,10.73
2022-10-23T01:27:34.162Z,10.85
2022-10-23T01:30:11.067Z,11.25
2022-10-23T01:33:16.234Z,9.18
2022-10-23T01:36:06.279Z,10.07
2022-10-23T01:38:56.601Z,8.60
2022-10-23T01:41:29.370Z,8.10
2022-10-23T01:43:59.375Z,9.68
2022-10-23T01:46:28.067Z,10.35
2022-10-23T01:48:57.597Z,9.70
2022-10-23T01:51:28.803Z,10.20
2022-10-23T01:54:00.089Z,10.82
2022-10-23T01:56:33.771Z,11.48
2022-10-23T01:59:04.895Z,9.60
2022-10-23T02:01:33.410Z,9.48
2022-10-23T02:04:05.077Z,11.65
2022-10-23T02:06:32.228Z,10.32
2022-10-23T02:08:59.018Z,11.38
2022-10-23T02:11:28.249Z,10.50
2022-10-23T02:14:10.747Z,10.40
2022-10-23T02:16:46.106Z,10.68
2022-10-23T02:19:21.884Z,8.43
2022-10-23T02:22:03.042Z,10.73
2022-10-23T02:24:38.755Z,11.85
2022-10-23T02:27:12.833Z,14.05
2022-10-23T02:30:09.674Z,12.45
2022-10-23T02:32:43.313Z,10.80
2022-10-23T02:35:11.066Z,11.82
2022-10-23T02:37:38.135Z,12.63
2022-10-23T02:40:05.588Z,10.23
2022-10-23T02:43:01.219Z,11.18
2022-10-23T02:48:58.190Z,8.82
2022-10-23T02:51:42.445Z,8.45
2022-10-23T02:54:19.036Z,9.40
2022-10-23T02:56:53.390Z,10.95
2022-10-23T03:01:49.971Z,8.57
2022-10-23T03:04:19.376Z,10.57
2022-10-23T03:06:46.553Z,9.63
2022-10-23T03:09:13.303Z,10.63
2022-10-23T03:11:39.945Z,11.50
2022-10-23T03:14:06.810Z,11.98
2022-10-23T03:16:33.564Z,10.43
2022-10-23T03:19:00.183Z,9.68
2022-10-23T03:21:27.362Z,12.75
2022-10-23T03:23:54.880Z,11.98
2022-10-23T03:26:22.914Z,11.15
2022-10-23T03:28:49.649Z,11.73
2022-10-23T03:31:16.242Z,10.55
2022-10-23T03:33:42.836Z,9.48
2022-10-23T03:36:09.903Z,13.77
2022-10-23T03:38:36.515Z,11.23
2022-10-23T03:41:03.106Z,12.18
2022-10-23T03:43:29.807Z,10.15
2022-10-23T03:45:57.434Z,10.20
2022-10-23T03:48:24.043Z,10.32
2022-10-23T03:50:51.300Z,9.82
2022-10-23T03:53:20.179Z,14.18
2022-10-23T03:55:49.387Z,11.07
2022-10-23T03:58:15.971Z,10.65
2022-10-23T04:03:10.237Z,15.27
2022-10-23T04:05:36.917Z,14.05
2022-10-23T04:08:03.723Z,13.27
2022-10-23T04:10:30.367Z,14.10
2022-10-23T04:13:00.138Z,13.02
2022-10-23T04:15:27.171Z,14.60
2022-10-23T04:17:53.811Z,14.55
2022-10-23T04:20:20.543Z,14.68
2022-10-23T04:22:47.183Z,16.40
2022-10-23T04:25:13.773Z,12.98
2022-10-23T04:27:42.076Z,11.95
2022-10-23T04:30:10.172Z,11.82
2022-10-23T04:32:36.735Z,12.93
2022-10-23T04:35:03.670Z,12.30
2022-10-23T04:37:33.365Z,12.88
2022-10-23T04:39:59.990Z,12.98
2022-10-23T04:45:13.379Z,15.73
2022-10-23T04:47:39.984Z,12.82
2022-10-23T04:50:07.066Z,10.13
2022-10-23T04:52:33.671Z,9.20
2022-10-23T04:55:07.489Z,13.88
2022-10-23T04:57:34.034Z,11.38
2022-10-23T05:00:01.746Z,12.10
2022-10-23T05:02:31.127Z,10.48
2022-10-23T05:05:01.712Z,10.57
2022-10-23T05:07:28.290Z,14.65
2022-10-23T05:09:54.921Z,15.00
2022-10-23T05:12:21.548Z,12.40
2022-10-23T05:17:56.261Z,13.18
2022-10-23T05:20:26.994Z,13.57
2022-10-23T05:22:57.099Z,14.52
2022-10-23T05:25:24.353Z,13.02
2022-10-23T05:27:52.175Z,13.43
2022-10-23T05:30:18.964Z,15.60
2022-10-23T05:35:50.830Z,15.93
2022-10-23T05:38:20.610Z,15.88
2022-10-23T05:40:47.351Z,16.80
2022-10-23T05:43:15.213Z,18.02
2022-10-23T05:45:44.821Z,17.45
2022-10-23T05:48:22.823Z,17.27
2022-10-23T05:51:07.927Z,16.75
2022-10-23T05:53:36.233Z,16.58
2022-10-23T05:56:07.123Z,14.30
2022-10-23T05:58:35.495Z,14.82
2022-10-23T06:01:10.835Z,16.77
2022-10-23T06:03:38.976Z,15.25
2022-10-23T06:06:06.813Z,15.52
2022-10-23T06:08:34.392Z,17.13
2022-10-23T06:11:12.947Z,16.15
2022-10-23T06:13:42.265Z,15.48
2022-10-23T06:16:10.839Z,15.80
2022-10-23T06:18:37.679Z,16.13
2022-10-23T06:21:04.618Z,17.45
2022-10-23T06:23:36.024Z,18.13
2022-10-23T06:26:03.366Z,16.60
2022-10-23T06:28:30.033Z,14.50
2022-10-23T06:30:59.619Z,15.10
2022-10-23T06:33:26.259Z,15.43
2022-10-23T06:35:58.687Z,14.85
2022-10-23T06:38:25.667Z,13.32
2022-10-23T06:40:54.194Z,15.73
2022-10-23T06:43:21.231Z,14.90
2022-10-23T06:45:48.486Z,14.82
2022-10-23T06:48:16.027Z,14.50
2022-10-23T06:50:42.768Z,15.80
2022-10-23T06:53:09.510Z,15.18
2022-10-23T06:58:22.714Z,16.95
2022-10-23T07:00:49.548Z,21.30
2022-10-23T07:03:16.315Z,21.73
2022-10-23T07:05:46.711Z,18.38
2022-10-23T07:08:14.545Z,14.77
2022-10-23T07:10:41.271Z,17.15
2022-10-23T07:13:07.901Z,14.07
2022-10-23T07:15:34.694Z,16.50
2022-10-23T07:18:01.299Z,16.95
2022-10-23T07:20:27.929Z,15.75
2022-10-23T07:22:56.159Z,17.73
2022-10-23T07:25:25.106Z,16.48
2022-10-23T07:27:53.475Z,13.15
2022-10-23T07:30:20.199Z,13.75
2022-10-23T07:32:46.773Z,15.02
2022-10-23T07:35:19.294Z,14.07
2022-10-23T07:37:50.655Z,13.75
2022-10-23T07:40:19.296Z,11.77
2022-10-23T07:42:52.378Z,13.18
2022-10-23T07:45:22.184Z,10.40
2022-10-23T07:47:52.216Z,9.82
2022-10-23T07:50:23.821Z,9.43
2022-10-23T07:52:53.410Z,11.35
2022-10-23T07:55:20.242Z,11.52
2022-10-23T07:57:47.339Z,9.60
2022-10-23T08:00:17.093Z,9.15
2022-10-23T08:02:44.848Z,8.13
2022-10-23T08:05:15.035Z,10.27
2022-10-23T08:07:51.017Z,8.38
2022-10-23T08:10:17.919Z,7.05
2022-10-23T08:12:44.894Z,10.18
2022-10-23T08:15:11.736Z,8.70
2022-10-23T08:17:39.317Z,9.20
2022-10-23T08:20:06.499Z,8.50
2022-10-23T08:22:33.163Z,7.88
2022-10-23T08:25:00.046Z,8.02
2022-10-23T08:27:29.314Z,7.80
2022-10-23T08:29:55.933Z,8.80
2022-10-23T08:32:22.679Z,8.48
2022-10-23T08:37:24.144Z,7.05
2022-10-23T08:39:53.251Z,8.32
2022-10-23T08:42:23.795Z,7.53
2022-10-23T08:45:00.065Z,7.68
2022-10-23T08:47:41.007Z,7.25
2022-10-23T08:50:37.190Z,9.40
2022-10-23T08:53:10.286Z,8.63
2022-10-23T08:55:55.571Z,7.75
2022-10-23T08:58:36.266Z,8.13
2022-10-23T09:01:49.831Z,7.18
2022-10-23T09:04:16.842Z,7.30
2022-10-23T09:07:10.721Z,8.27
2022-10-23T09:10:42.702Z,6.75
2022-10-23T09:13:49.012Z,6.13
2022-10-23T09:16:48.802Z,6.55
2022-10-23T09:19:25.481Z,6.75
2022-10-23T09:21:52.466Z,6.85
2022-10-23T09:24:21.810Z,5.38
2022-10-23T09:26:52.291Z,5.45
2022-10-23T09:29:24.054Z,5.25
2022-10-23T09:31:57.994Z,8.63
2022-10-23T09:34:35.017Z,6.28
2022-10-23T09:37:21.699Z,5.63
2022-10-23T09:39:48.329Z,7.00
2022-10-23T09:42:25.781Z,6.20
2022-10-23T09:44:55.837Z,7.03
2022-10-23T09:47:24.849Z,6.07
2022-10-23T09:49:56.308Z,5.78
2022-10-23T09:52:28.708Z,6.30
2022-10-23T09:54:58.456Z,6.20
2022-10-23T09:57:36.916Z,5.95
2022-10-23T10:00:22.085Z,5.70
2022-10-23T10:03:07.841Z,6.47
2022-10-23T10:05:39.497Z,4.88
2022-10-23T10:08:06.963Z,5.40
2022-10-23T10:10:40.071Z,5.82
2022-10-23T10:13:23.786Z,5.13
2022-10-23T10:15:55.624Z,5.70
2022-10-23T10:18:32.980Z,5.20
2022-10-23T10:21:08.635Z,5.57
2022-10-23T10:23:48.248Z,5.63
2022-10-23T10:26:50.468Z,6.18
2022-10-23T10:29:43.327Z,4.55
2022-10-23T10:32:48.779Z,5.55
2022-10-23T10:35:40.742Z,5.65
2022-10-23T10:38:15.056Z,5.90
2022-10-23T10:40:47.317Z,6.50
2022-10-23T10:43:29.613Z,5.65
2022-10-23T10:46:25.537Z,5.63
2022-10-23T10:49:27.641Z,6.03
2022-10-23T10:52:16.891Z,5.57
2022-10-23T10:55:03.649Z,8.50
2022-10-23T10:57:39.394Z,7.90
2022-10-23T11:00:21.092Z,7.70
2022-10-23T11:03:06.550Z,7.30
2022-10-23T11:05:39.415Z,9.80
2022-10-23T11:08:16.941Z,8.07
2022-10-23T11:10:46.871Z,7.30
2022-10-23T11:13:26.499Z,7.32
2022-10-23T11:15:58.163Z,6.15
2022-10-23T11:18:29.208Z,7.70
2022-10-23T11:21:03.581Z,8.25
2022-10-23T11:23:58.278Z,8.45
2022-10-23T11:27:02.399Z,8.70
2022-10-23T11:29:48.293Z,7.25
2022-10-23T11:32:20.843Z,8.50
2022-10-23T11:34:56.183Z,6.63
2022-10-23T11:37:24.212Z,7.50
2022-10-23T11:40:23.292Z,7.50
2022-10-23T11:42:51.480Z,8.35
2022-10-23T11:45:30.965Z,7.65
2022-10-23T11:48:06.262Z,7.15
2022-10-23T11:50:49.475Z,9.32
2022-10-23T11:53:25.728Z,7.45
2022-10-23T11:56:05.120Z,9.38
2022-10-23T11:58:48.107Z,10.45
2022-10-23T12:01:39.544Z,7.73
2022-10-23T12:04:16.606Z,9.05
2022-10-23T12:06:48.161Z,9.00
2022-10-23T12:09:31.657Z,9.23
2022-10-23T12:12:26.887Z,8.10
2022-10-23T12:14:56.814Z,8.60
2022-10-23T12:17:23.487Z,7.03
2022-10-23T12:19:55.751Z,9.88
2022-10-23T12:22:28.279Z,8.60
2022-10-23T12:25:09.245Z,8.10
2022-10-23T12:27:42.028Z,9.80
2022-10-23T12:30:34.536Z,7.97
2022-10-23T12:33:25.329Z,9.75
2022-10-23T12:36:11.453Z,9.05
2022-10-23T12:38:48.088Z,8.50
2022-10-23T12:41:38.339Z,11.32
2022-10-23T12:44:11.686Z,10.00
2022-10-23T12:46:47.466Z,12.18
2022-10-23T12:49:24.939Z,11.63
2022-10-23T12:52:16.635Z,12.65
2022-10-23T12:54:46.297Z,12.95
2022-10-23T12:57:24.444Z,12.27
2022-10-23T13:00:01.199Z,12.02
2022-10-23T13:02:32.306Z,11.73
2022-10-23T13:05:06.129Z,12.57
2022-10-23T13:07:43.065Z,11.52
2022-10-23T13:10:19.835Z,11.25
2022-10-23T13:13:13.747Z,10.80
2022-10-23T13:15:45.379Z,9.80
2022-10-23T13:18:16.351Z,11.52
2022-10-23T13:21:03.461Z,10.65
2022-10-23T13:23:34.906Z,10.82
2022-10-23T13:26:05.640Z,10.07
2022-10-23T13:28:32.305Z,10.70
2022-10-23T13:31:22.700Z,12.05
2022-10-23T13:34:17.453Z,10.68
2022-10-23T13:37:03.687Z,10.55
2022-10-23T13:39:34.756Z,11.20
2022-10-23T13:42:12.500Z,10.63
2022-10-23T13:44:39.173Z,11.88
2022-10-23T13:47:05.919Z,11.10
2022-10-23T13:49:32.557Z,9.10
2022-10-23T13:52:02.454Z,10.68
2022-10-23T13:54:29.505Z,9.82
2022-10-23T13:56:57.150Z,9.90
2022-10-23T13:59:24.037Z,9.30
2022-10-23T14:01:51.122Z,8.50
2022-10-23T14:04:18.893Z,10.82
2022-10-23T14:06:46.086Z,9.20
2022-10-23T14:09:17.745Z,9.30
2022-10-23T14:11:47.241Z,9.50
2022-10-23T14:14:16.492Z,9.57
2022-10-23T14:16:44.655Z,9.95
2022-10-23T14:19:12.216Z,10.60
2022-10-23T14:21:38.991Z,9.00
2022-10-23T14:24:07.796Z,9.85
2022-10-23T14:26:34.410Z,9.18
2022-10-23T14:29:09.881Z,10.70
2022-10-23T14:31:43.577Z,10.00
2022-10-23T14:34:13.112Z,9.55
2022-10-23T14:36:49.615Z,10.98
2022-10-23T14:39:16.879Z,10.57
2022-10-23T14:41:43.699Z,11.40
2022-10-23T14:44:31.731Z,10.98
2022-10-23T14:47:08.654Z,11.35
2022-10-23T14:49:39.785Z,11.63
2022-10-23T14:52:07.805Z,11.18
2022-10-23T14:54:37.336Z,11.02
2022-10-23T14:57:10.023Z,11.27
2022-10-23T14:59:36.603Z,10.77
2022-10-23T15:02:03.861Z,8.88
2022-10-23T15:04:30.608Z,10.70
2022-10-23T15:06:57.419Z,10.45
2022-10-23T15:09:24.075Z,10.32
2022-10-23T15:11:50.780Z,8.60
2022-10-23T15:14:17.353Z,11.05
2022-10-23T15:16:44.024Z,8.88
2022-10-23T15:19:17.085Z,9.73
2022-10-23T15:21:46.070Z,9.32
2022-10-23T15:24:12.924Z,9.73
2022-10-23T15:26:40.904Z,9.85
2022-10-23T15:29:07.608Z,11.10
2022-10-23T15:31:37.639Z,9.65
2022-10-23T15:34:05.774Z,10.00
2022-10-23T15:36:32.799Z,9.38
2022-10-23T15:38:59.598Z,8.38
2022-10-23T15:41:31.824Z,9.82
2022-10-23T15:44:01.656Z,9.05
2022-10-23T15:46:28.481Z,6.97
2022-10-23T15:48:55.594Z,9.50
2022-10-23T15:51:26.106Z,10.20
2022-10-23T15:53:52.863Z,10.50
2022-10-23T15:56:19.486Z,11.20
2022-10-23T15:58:46.425Z,11.07
2022-10-23T16:01:13.142Z,9.43
2022-10-23T16:03:39.924Z,10.77
2022-10-23T16:06:11.849Z,11.73
2022-10-23T16:08:39.174Z,12.05
2022-10-23T16:11:20.828Z,12.73
2022-10-23T16:13:47.605Z,12.68
2022-10-23T16:16:17.964Z,13.23
2022-10-23T16:18:47.703Z,12.68
2022-10-23T16:21:21.266Z,12.15
2022-10-23T16:23:48.494Z,15.35
2022-10-23T16:26:18.499Z,12.88
2022-10-23T16:28:47.287Z,13.05
2022-10-23T16:31:20.232Z,12.18
2022-10-23T16:33:48.449Z,13.10
2022-10-23T16:36:15.442Z,13.23
2022-10-23T16:38:43.391Z,9.40
2022-10-23T16:41:10.279Z,11.90
2022-10-23T16:43:37.257Z,13.27
2022-10-23T16:46:24.446Z,15.52
2022-10-23T16:48:52.179Z,13.90
2022-10-23T16:51:22.431Z,10.82
2022-10-23T16:53:49.232Z,14.88
2022-10-23T16:56:18.989Z,9.93
2022-10-23T16:58:46.190Z,13.93
2022-10-23T17:01:16.460Z,14.85
2022-10-23T17:03:47.209Z,13.32
2022-10-23T17:06:24.654Z,14.00
2022-10-23T17:08:51.871Z,13.90
2022-10-23T17:11:26.097Z,14.80
2022-10-23T17:13:59.123Z,13.40
2022-10-23T17:16:39.311Z,14.00
2022-10-23T17:19:15.877Z,15.77
2022-10-23T17:21:48.173Z,14.13
2022-10-23T17:24:14.878Z,14.85
2022-10-23T17:26:42.262Z,14.55
2022-10-23T17:29:10.334Z,14.50
2022-10-23T17:31:39.312Z,16.63
2022-10-23T17:34:08.337Z,16.48
2022-10-23T17:36:39.049Z,15.20
2022-10-23T17:39:07.758Z,17.02
2022-10-23T17:41:35.184Z,14.40
2022-10-23T17:44:02.430Z,14.88
2022-10-23T17:46:29.702Z,15.90
2022-10-23T17:48:58.219Z,20.25
2022-10-23T17:51:29.724Z,15.63
2022-10-23T17:54:00.146Z,16.75
2022-10-23T17:56:29.574Z,18.23
2022-10-23T17:59:04.539Z,17.67
2022-10-23T18:01:31.391Z,18.98
2022-10-23T18:04:01.816Z,17.15
2022-10-23T18:06:32.030Z,20.95
2022-10-23T18:09:00.098Z,16.88
2022-10-23T18:11:30.069Z,19.02
2022-10-23T18:16:48.858Z,19.73
2022-10-23T18:19:17.549Z,18.98
2022-10-23T18:21:44.310Z,16.23
2022-10-23T18:24:11.619Z,17.83
2022-10-23T18:26:41.043Z,18.40
2022-10-23T18:29:08.618Z,17.50
2022-10-23T18:31:37.027Z,18.05
2022-10-23T18:34:07.197Z,20.23
2022-10-23T18:36:39.183Z,21.30
2022-10-23T18:39:07.487Z,19.13
2022-10-23T18:41:40.588Z,20.23
2022-10-23T18:44:07.587Z,20.77
2022-10-23T18:46:34.739Z,20.27
2022-10-23T18:49:01.491Z,21.73
2022-10-23T18:51:34.032Z,21.45
2022-10-23T18:54:03.070Z,19.83
2022-10-23T18:56:29.697Z,22.92
2022-10-23T18:58:59.515Z,21.77
2022-10-23T19:01:27.944Z,21.73
2022-10-23T19:06:43.569Z,22.42
2022-10-23T19:09:11.855Z,22.75
2022-10-23T19:11:38.559Z,22.05
2022-10-23T19:14:05.706Z,24.20
2022-10-23T19:16:44.396Z,24.77
2022-10-23T19:19:24.513Z,21.70
2022-10-23T19:21:55.665Z,24.00
2022-10-23T19:24:31.931Z,24.13
2022-10-23T19:27:03.559Z,22.00
2022-10-23T19:29:31.031Z,22.60
2022-10-23T19:32:00.178Z,24.20
2022-10-23T19:34:26.891Z,23.60
2022-10-23T19:36:53.916Z,22.10
2022-10-23T19:39:21.319Z,21.70
2022-10-23T19:41:48.940Z,21.45
2022-10-23T19:44:15.622Z,21.70
2022-10-23T19:46:42.727Z,22.48
2022-10-23T19:49:09.923Z,22.80
2022-10-23T19:51:37.244Z,21.73
2022-10-23T19:54:04.597Z,21.65
2022-10-23T19:56:31.800Z,25.08
2022-10-23T19:58:58.986Z,23.33
2022-10-23T20:01:26.283Z,22.77
2022-10-23T20:03:53.038Z,20.92
2022-10-23T20:06:22.616Z,21.55
2022-10-23T20:08:49.707Z,20.45
2022-10-23T20:11:20.531Z,22.65
2022-10-23T20:13:48.566Z,21.95
2022-10-23T20:16:27.332Z,20.33
2022-10-23T20:19:04.567Z,21.63
2022-10-23T20:21:43.615Z,24.33
2022-10-23T20:24:12.992Z,25.60
2022-10-23T20:26:51.411Z,24.00
2022-10-23T20:29:18.779Z,26.10
2022-10-23T20:31:45.526Z,23.15
2022-10-23T20:34:12.247Z,23.90
2022-10-23T20:36:45.476Z,20.40
2022-10-23T20:39:16.771Z,19.08
2022-10-23T20:41:43.629Z,23.85
2022-10-23T20:44:14.141Z,24.35
2022-10-23T20:46:40.907Z,22.45
2022-10-23T20:49:08.402Z,23.45
2022-10-23T20:51:35.109Z,21.95
2022-10-23T20:54:02.112Z,21.52
2022-10-23T20:56:31.678Z,25.98
2022-10-23T20:58:59.039Z,21.45
2022-10-23T21:01:26.444Z,25.30
2022-10-23T21:03:55.595Z,23.38
2022-10-23T21:06:22.353Z,25.30
2022-10-23T21:08:50.133Z,23.02
2022-10-23T21:11:29.235Z,21.55
2022-10-23T21:13:56.570Z,24.77
2022-10-23T21:16:28.441Z,25.38
2022-10-23T21:18:56.967Z,26.33
2022-10-23T21:21:25.025Z,26.70
2022-10-23T21:23:57.315Z,29.63
2022-10-23T21:26:24.426Z,26.92
2022-10-23T21:29:00.916Z,27.75
2022-10-23T21:31:43.624Z,25.42
2022-10-23T21:37:12.537Z,24.20
2022-10-23T21:39:40.203Z,25.30
2022-10-23T21:42:07.077Z,28.40
2022-10-23T21:44:33.796Z,25.70
2022-10-23T21:47:00.500Z,22.00
2022-10-23T21:49:28.166Z,22.98
2022-10-23T21:51:55.208Z,23.75
2022-10-23T21:54:22.286Z,25.05
2022-10-23T21:56:50.937Z,23.85
2022-10-23T21:59:21.087Z,27.25
2022-10-23T22:01:48.926Z,25.08
2022-10-23T22:04:17.948Z,22.98
2022-10-23T22:06:47.226Z,29.45
2022-10-23T22:09:17.072Z,25.05
2022-10-23T22:11:43.704Z,25.83
2022-10-23T22:14:11.072Z,28.15
2022-10-23T22:16:37.937Z,26.05
2022-10-23T22:19:04.631Z,26.98
2022-10-23T22:21:32.097Z,27.40
2022-10-23T22:24:00.584Z,26.63
2022-10-23T22:26:31.597Z,21.38
2022-10-23T22:29:01.206Z,26.13
2022-10-23T22:31:30.809Z,21.65
2022-10-23T22:33:58.458Z,22.77
2022-10-23T22:36:25.795Z,22.60
2022-10-23T22:38:52.830Z,28.17
2022-10-23T22:41:19.654Z,25.90
2022-10-23T22:43:46.236Z,26.73
2022-10-23T22:46:15.357Z,23.38
2022-10-23T22:48:42.483Z,29.45
2022-10-23T22:51:11.606Z,27.35
2022-10-23T22:53:38.380Z,24.42
2022-10-23T22:56:11.115Z,24.95
2022-10-23T22:58:38.019Z,22.05
2022-10-23T23:01:14.348Z,22.58
2022-10-23T23:03:41.560Z,28.83
2022-10-23T23:06:09.517Z,26.90
2022-10-23T23:08:38.200Z,24.13
2022-10-23T23:11:05.944Z,25.42
2022-10-23T23:13:32.930Z,27.10
2022-10-23T23:15:59.795Z,28.58
2022-10-23T23:18:26.928Z,27.92
2022-10-23T23:20:53.701Z,27.70
2022-10-23T23:23:20.472Z,29.40
2022-10-23T23:25:51.452Z,27.77
2022-10-23T23:28:20.233Z,28.88
2022-10-23T23:30:47.813Z,22.80
2022-10-23T23:33:15.986Z,19.85
2022-10-23T23:35:44.638Z,22.63
2022-10-23T23:38:12.172Z,22.30
2022-10-23T23:40:39.063Z,25.65
2022-10-23T23:43:05.646Z,21.52
2022-10-23T23:45:32.766Z,18.73
2022-10-23T23:48:02.281Z,25.17
2022-10-23T23:50:29.183Z,24.95
2022-10-23T23:52:56.043Z,26.60
2022-10-23T23:55:22.731Z,23.80
2022-10-23T23:57:49.385Z,23.58
